createdAt,value
2022-10-11T00:00:32.925Z,8.73
2022-10-11T00:03:21.496Z,8.68
2022-10-11T00:05:49.432Z,8.72
2022-10-11T00:08:17.456Z,8.76
2022-10-11T00:10:45.593Z,8.84
2022-10-11T00:13:13.520Z,8.90
2022-10-11T00:15:41.594Z,8.86
2022-10-11T00:18:09.915Z,8.86
2022-10-11T00:20:38.148Z,8.86
2022-10-11T00:23:05.961Z,8.85
2022-10-11T00:25:34.188Z,8.82
2022-10-11T00:28:02.041Z,8.80
2022-10-11T00:30:29.960Z,8.82
2022-10-11T00:32:58.205Z,8.81
2022-10-11T00:35:26.498Z,8.91
2022-10-11T00:37:56.195Z,8.92
2022-10-11T00:40:24.228Z,8.86
2022-10-11T00:42:52.443Z,8.85
2022-10-11T00:45:40.691Z,8.87
2022-10-11T00:48:14.896Z,8.88
2022-10-11T00:50:43.492Z,8.86
2022-10-11T00:53:12.300Z,8.81
2022-10-11T00:56:03.922Z,8.77
2022-10-11T00:58:34.234Z,8.77
2022-10-11T01:01:02.647Z,8.70
2022-10-11T01:03:31.667Z,8.64
2022-10-11T01:05:59.535Z,8.61
2022-10-11T01:08:28.421Z,8.59
2022-10-11T01:10:56.957Z,8.54
2022-10-11T01:13:24.931Z,8.52
2022-10-11T01:15:52.930Z,8.50
2022-10-11T01:18:56.505Z,8.47
2022-10-11T01:21:43.562Z,8.45
2022-10-11T01:24:27.495Z,8.40
2022-10-11T01:27:01.483Z,8.35
2022-10-11T01:29:29.451Z,8.36
2022-10-11T01:32:00.324Z,8.33
2022-10-11T01:34:33.981Z,8.35
2022-10-11T01:37:08.212Z,8.34
2022-10-11T01:39:42.627Z,8.31
2022-10-11T01:42:12.586Z,8.29
2022-10-11T01:44:42.672Z,8.19
2022-10-11T01:47:10.748Z,8.15
2022-10-11T01:49:39.361Z,8.15
2022-10-11T01:52:07.627Z,8.14
2022-10-11T01:55:08.570Z,8.13
2022-10-11T01:58:02.531Z,8.12
2022-10-11T02:00:56.631Z,8.15
2022-10-11T02:03:30.741Z,8.23
2022-10-11T02:06:11.912Z,8.27
2022-10-11T02:08:42.958Z,8.26
2022-10-11T02:11:30.803Z,8.21
2022-10-11T02:14:03.783Z,8.16
2022-10-11T02:16:35.370Z,8.28
2022-10-11T02:19:05.567Z,8.36
2022-10-11T02:21:34.805Z,8.34
2022-10-11T02:24:12.574Z,8.32
2022-10-11T02:26:42.376Z,8.27
2022-10-11T02:29:12.600Z,8.17
2022-10-11T02:31:42.355Z,8.08
2022-10-11T02:34:28.513Z,8.07
2022-10-11T02:36:56.379Z,8.03
2022-10-11T02:39:32.028Z,8.01
2022-10-11T02:42:02.663Z,8.04
2022-10-11T02:44:39.338Z,8.05
2022-10-11T02:47:07.923Z,8.03
2022-10-11T02:49:36.278Z,8.01
2022-10-11T02:52:05.233Z,8.04
2022-10-11T02:54:33.295Z,8.06
2022-10-11T02:57:01.501Z,8.08
2022-10-11T02:59:29.432Z,8.09
2022-10-11T03:01:57.371Z,8.08
2022-10-11T03:04:25.769Z,8.14
2022-10-11T03:06:53.738Z,8.16
2022-10-11T03:09:21.609Z,8.19
2022-10-11T03:11:49.682Z,8.22
2022-10-11T03:14:17.657Z,8.24
2022-10-11T03:16:45.829Z,8.27
2022-10-11T03:19:18.331Z,8.30
2022-10-11T03:21:47.550Z,8.27
2022-10-11T03:24:15.781Z,8.24
2022-10-11T03:26:43.837Z,8.24
2022-10-11T03:29:11.652Z,8.22
2022-10-11T03:31:39.799Z,8.23
2022-10-11T03:34:07.821Z,8.26
2022-10-11T03:36:36.260Z,8.29
2022-10-11T03:39:04.734Z,8.32
2022-10-11T03:41:32.565Z,8.32
2022-10-11T03:44:00.573Z,8.31
2022-10-11T03:46:28.573Z,8.32
2022-10-11T03:48:56.513Z,8.35
2022-10-11T03:51:24.532Z,8.40
2022-10-11T03:53:52.460Z,8.45
2022-10-11T03:56:20.529Z,8.53
2022-10-11T03:58:48.546Z,8.60
2022-10-11T04:01:16.628Z,8.64
2022-10-11T04:03:44.647Z,8.64
2022-10-11T04:06:12.637Z,8.64
2022-10-11T04:08:40.690Z,8.60
2022-10-11T04:11:08.677Z,8.56
2022-10-11T04:13:36.640Z,8.67
2022-10-11T04:16:05.241Z,8.77
2022-10-11T04:18:33.395Z,8.82
2022-10-11T04:21:01.570Z,8.85
2022-10-11T04:23:30.793Z,8.85
2022-10-11T04:25:58.739Z,8.86
2022-10-11T04:28:26.630Z,8.86
2022-10-11T04:30:54.889Z,8.82
2022-10-11T04:33:22.858Z,8.84
2022-10-11T04:35:53.817Z,8.83
2022-10-11T04:38:22.180Z,8.83
2022-10-11T04:40:50.290Z,8.94
2022-10-11T04:43:19.147Z,9.05
2022-10-11T04:45:47.224Z,9.10
2022-10-11T04:48:15.533Z,9.12
2022-10-11T04:50:44.703Z,9.10
2022-10-11T04:53:17.480Z,9.07
2022-10-11T04:55:55.550Z,9.06
2022-10-11T04:58:23.374Z,9.07
2022-10-11T05:00:51.326Z,9.14
2022-10-11T05:03:19.325Z,9.20
2022-10-11T05:05:47.574Z,9.25
2022-10-11T05:08:15.750Z,9.30
2022-10-11T05:10:43.822Z,9.30
2022-10-11T05:13:11.701Z,9.34
2022-10-11T05:15:39.765Z,9.44
2022-10-11T05:18:07.841Z,9.52
2022-10-11T05:20:35.811Z,9.54
2022-10-11T05:23:03.569Z,9.52
2022-10-11T05:25:31.648Z,9.53
2022-10-11T05:27:59.635Z,9.56
2022-10-11T05:30:27.591Z,9.56
2022-10-11T05:32:55.570Z,9.59
2022-10-11T05:35:23.349Z,9.66
2022-10-11T05:37:51.401Z,9.67
2022-10-11T05:40:19.394Z,9.61
2022-10-11T05:42:47.239Z,9.58
2022-10-11T05:45:15.072Z,9.50
2022-10-11T05:47:42.897Z,9.52
2022-10-11T05:50:11.255Z,9.53
2022-10-11T05:52:39.094Z,9.57
2022-10-11T05:55:07.534Z,9.63
2022-10-11T05:57:35.578Z,9.69
2022-10-11T06:00:04.699Z,9.73
2022-10-11T06:02:40.850Z,9.72
2022-10-11T06:05:09.128Z,9.80
2022-10-11T06:07:37.765Z,9.90
2022-10-11T06:10:06.811Z,9.94
2022-10-11T06:12:34.773Z,9.96
2022-10-11T06:15:03.703Z,10.00
2022-10-11T06:17:31.953Z,10.01
2022-10-11T06:19:59.911Z,10.04
2022-10-11T06:22:27.884Z,10.08
2022-10-11T06:24:55.737Z,10.12
2022-10-11T06:27:23.696Z,10.20
2022-10-11T06:29:51.611Z,10.26
2022-10-11T06:32:19.535Z,10.32
2022-10-11T06:34:47.602Z,10.34
2022-10-11T06:37:16.322Z,10.31
2022-10-11T06:40:09.792Z,10.29
2022-10-11T06:42:38.483Z,10.34
2022-10-11T06:45:07.178Z,10.41
2022-10-11T06:47:35.115Z,10.52
2022-10-11T06:50:03.222Z,10.65
2022-10-11T06:52:31.702Z,10.81
2022-10-11T06:54:59.796Z,10.95
2022-10-11T06:57:29.418Z,11.03
2022-10-11T06:59:57.757Z,11.04
2022-10-11T07:02:25.727Z,11.05
2022-10-11T07:04:53.715Z,11.11
2022-10-11T07:07:21.674Z,11.20
2022-10-11T07:09:50.091Z,11.29
2022-10-11T07:12:17.926Z,11.37
2022-10-11T07:14:45.782Z,11.50
2022-10-11T07:17:13.659Z,11.61
2022-10-11T07:19:41.797Z,11.72
2022-10-11T07:22:09.594Z,11.84
2022-10-11T07:24:37.774Z,11.99
2022-10-11T07:27:06.173Z,12.13
2022-10-11T07:29:34.227Z,12.15
2022-10-11T07:32:02.198Z,12.26
2022-10-11T07:34:30.174Z,12.22
2022-10-11T07:36:58.538Z,12.25
2022-10-11T07:39:26.897Z,12.31
2022-10-11T07:41:54.799Z,12.38
2022-10-11T07:44:22.646Z,12.44
2022-10-11T07:46:50.601Z,12.47
2022-10-11T07:49:18.609Z,12.44
2022-10-11T07:51:46.683Z,12.44
2022-10-11T07:54:14.666Z,12.51
2022-10-11T07:56:44.040Z,12.59
2022-10-11T07:59:12.156Z,12.61
2022-10-11T08:01:40.217Z,12.61
2022-10-11T08:04:08.112Z,12.61
2022-10-11T08:06:36.743Z,12.76
2022-10-11T08:09:05.745Z,12.86
2022-10-11T08:11:36.083Z,12.89
2022-10-11T08:14:08.884Z,12.87
2022-10-11T08:16:38.194Z,12.96
2022-10-11T08:19:06.809Z,13.01
2022-10-11T08:21:35.008Z,13.08
2022-10-11T08:24:04.026Z,13.15
2022-10-11T08:26:32.782Z,13.22
2022-10-11T08:29:05.429Z,13.27
2022-10-11T08:31:34.600Z,13.33
2022-10-11T08:34:03.019Z,13.38
2022-10-11T08:36:31.257Z,13.44
2022-10-11T08:38:59.125Z,13.52
2022-10-11T08:41:27.121Z,13.63
2022-10-11T08:43:58.239Z,13.67
2022-10-11T08:46:31.091Z,13.84
2022-10-11T08:49:00.218Z,13.96
2022-10-11T08:51:50.413Z,14.14
2022-10-11T08:54:27.191Z,14.37
2022-10-11T08:56:55.086Z,14.51
2022-10-11T08:59:37.785Z,14.85
2022-10-11T09:02:24.909Z,15.29
2022-10-11T09:04:56.145Z,15.38
2022-10-11T09:07:27.291Z,15.57
2022-10-11T09:09:56.183Z,15.84
2022-10-11T09:12:46.890Z,16.15
2022-10-11T09:15:29.420Z,16.56
2022-10-11T09:18:03.631Z,16.64
2022-10-11T09:20:34.567Z,16.65
2022-10-11T09:23:25.881Z,16.76
2022-10-11T09:26:06.560Z,16.82
2022-10-11T09:28:44.304Z,16.79
2022-10-11T09:31:12.726Z,16.91
2022-10-11T09:33:48.100Z,17.05
2022-10-11T09:36:16.144Z,17.11
2022-10-11T09:39:06.631Z,16.97
2022-10-11T09:41:34.890Z,16.85
2022-10-11T09:44:03.032Z,16.93
2022-10-11T09:46:31.067Z,17.07
2022-10-11T09:49:01.377Z,17.16
2022-10-11T09:51:30.112Z,17.14
2022-10-11T09:54:00.410Z,17.09
2022-10-11T09:56:30.032Z,17.02
2022-10-11T09:59:16.829Z,16.99
2022-10-11T10:01:44.994Z,16.99
2022-10-11T10:04:14.812Z,16.96
2022-10-11T10:06:42.899Z,16.88
2022-10-11T10:09:22.437Z,16.78
2022-10-11T10:11:50.371Z,16.73
2022-10-11T10:14:23.215Z,16.65
2022-10-11T10:16:58.557Z,16.58
2022-10-11T10:19:26.607Z,16.56
2022-10-11T10:21:56.585Z,16.38
2022-10-11T10:24:33.710Z,16.37
2022-10-11T10:27:10.738Z,16.38
2022-10-11T10:29:39.430Z,16.36
2022-10-11T10:32:14.990Z,16.34
2022-10-11T10:35:03.080Z,16.30
2022-10-11T10:37:43.547Z,16.31
2022-10-11T10:40:18.687Z,16.31
2022-10-11T10:42:46.625Z,16.27
2022-10-11T10:45:21.241Z,16.14
2022-10-11T10:47:59.587Z,16.13
2022-10-11T10:50:30.946Z,16.08
2022-10-11T10:53:11.961Z,16.08
2022-10-11T10:55:45.331Z,16.13
2022-10-11T10:58:18.492Z,16.15
2022-10-11T11:00:48.649Z,16.18
2022-10-11T11:03:22.946Z,16.20
2022-10-11T11:05:54.096Z,16.20
2022-10-11T11:08:40.986Z,16.23
2022-10-11T11:11:28.546Z,16.21
2022-10-11T11:14:03.230Z,16.22
2022-10-11T11:16:31.034Z,16.28
2022-10-11T11:19:05.541Z,16.29
2022-10-11T11:21:53.559Z,16.32
2022-10-11T11:24:21.471Z,16.36
2022-10-11T11:26:55.766Z,16.39
2022-10-11T11:29:33.624Z,16.39
2022-10-11T11:32:07.704Z,16.37
2022-10-11T11:34:43.002Z,16.34
2022-10-11T11:37:19.578Z,16.32
2022-10-11T11:39:53.436Z,16.32
2022-10-11T11:42:24.549Z,16.35
2022-10-11T11:44:53.374Z,16.31
2022-10-11T11:47:27.786Z,16.28
2022-10-11T11:49:55.900Z,16.33
2022-10-11T11:52:27.724Z,16.32
2022-10-11T11:55:04.108Z,16.37
2022-10-11T11:57:53.094Z,16.44
2022-10-11T12:00:22.663Z,16.50
2022-10-11T12:02:57.187Z,16.52
2022-10-11T12:05:28.670Z,16.52
2022-10-11T12:08:01.325Z,16.55
2022-10-11T12:10:36.167Z,16.58
2022-10-11T12:13:17.259Z,16.62
2022-10-11T12:15:57.711Z,16.66
2022-10-11T12:18:26.350Z,16.61
2022-10-11T12:21:08.588Z,16.60
2022-10-11T12:23:42.089Z,16.56
2022-10-11T12:26:18.994Z,16.49
2022-10-11T12:29:00.373Z,16.42
2022-10-11T12:31:30.207Z,16.42
2022-10-11T12:34:01.455Z,16.41
2022-10-11T12:36:32.193Z,16.31
2022-10-11T12:39:18.669Z,16.28
2022-10-11T12:41:47.449Z,16.24
2022-10-11T12:44:18.184Z,16.23
2022-10-11T12:46:55.193Z,16.26
2022-10-11T12:49:38.607Z,16.20
2022-10-11T12:52:25.478Z,16.18
2022-10-11T12:55:05.896Z,16.18
2022-10-11T12:57:49.417Z,16.17
2022-10-11T13:00:18.203Z,16.18
2022-10-11T13:02:46.928Z,16.19
2022-10-11T13:05:23.891Z,16.20
2022-10-11T13:07:53.689Z,16.21
2022-10-11T13:10:25.062Z,16.21
2022-10-11T13:12:53.827Z,16.20
2022-10-11T13:15:22.926Z,16.19
2022-10-11T13:17:54.309Z,16.20
2022-10-11T13:20:26.271Z,16.19
2022-10-11T13:22:55.861Z,16.19
2022-10-11T13:25:25.970Z,16.17
2022-10-11T13:27:56.195Z,16.17
2022-10-11T13:30:26.001Z,16.16
2022-10-11T13:32:55.720Z,16.16
2022-10-11T13:35:44.070Z,16.17
2022-10-11T13:38:19.827Z,16.15
2022-10-11T13:40:50.845Z,16.14
2022-10-11T13:43:24.976Z,16.14
2022-10-11T13:45:56.842Z,16.15
2022-10-11T13:48:30.764Z,16.16
2022-10-11T13:51:09.226Z,16.17
2022-10-11T13:53:37.364Z,15.98
2022-10-11T13:56:07.775Z,15.99
2022-10-11T13:58:44.965Z,15.99
2022-10-11T14:01:21.599Z,15.96
2022-10-11T14:03:55.343Z,15.97
2022-10-11T14:06:23.500Z,15.92
2022-10-11T14:08:54.405Z,15.91
2022-10-11T14:11:35.896Z,15.91
2022-10-11T14:14:22.964Z,15.90
2022-10-11T14:16:58.168Z,15.87
2022-10-11T14:19:25.984Z,15.85
2022-10-11T14:21:54.452Z,15.81
2022-10-11T14:24:23.151Z,15.76
2022-10-11T14:26:53.158Z,15.72
2022-10-11T14:29:21.801Z,15.68
2022-10-11T14:31:50.126Z,15.67
2022-10-11T14:34:22.295Z,15.61
2022-10-11T14:36:50.550Z,15.62
2022-10-11T14:39:20.240Z,15.65
2022-10-11T14:41:48.328Z,15.69
2022-10-11T14:44:19.441Z,15.71
2022-10-11T14:46:48.027Z,15.70
2022-10-11T14:49:17.556Z,15.68
2022-10-11T14:51:47.312Z,15.63
2022-10-11T14:54:16.016Z,15.56
2022-10-11T14:56:43.913Z,15.51
2022-10-11T14:59:15.725Z,15.48
2022-10-11T15:01:43.959Z,15.44
2022-10-11T15:04:13.237Z,15.37
2022-10-11T15:06:41.993Z,15.32
2022-10-11T15:09:10.555Z,15.29
2022-10-11T15:11:38.963Z,15.26
2022-10-11T15:14:07.323Z,15.23
2022-10-11T15:16:35.862Z,15.18
2022-10-11T15:19:04.125Z,15.13
2022-10-11T15:21:32.722Z,15.09
2022-10-11T15:24:00.964Z,15.05
2022-10-11T15:26:29.663Z,14.97
2022-10-11T15:28:57.809Z,14.92
2022-10-11T15:31:26.108Z,14.89
2022-10-11T15:33:54.213Z,14.88
2022-10-11T15:36:22.667Z,14.89
2022-10-11T15:38:50.736Z,14.89
2022-10-11T15:41:20.079Z,14.87
2022-10-11T15:43:49.038Z,14.85
2022-10-11T15:46:22.243Z,14.77
2022-10-11T15:48:51.324Z,14.69
2022-10-11T15:51:19.909Z,14.63
2022-10-11T15:53:47.926Z,14.57
2022-10-11T15:56:17.592Z,14.54
2022-10-11T15:58:46.074Z,14.49
2022-10-11T16:01:14.130Z,14.47
2022-10-11T16:03:43.143Z,14.42
2022-10-11T16:06:11.729Z,14.36
2022-10-11T16:08:40.519Z,14.32
2022-10-11T16:11:09.205Z,14.32
2022-10-11T16:13:37.606Z,14.31
2022-10-11T16:16:06.464Z,14.31
2022-10-11T16:18:36.249Z,14.33
2022-10-11T16:21:09.652Z,14.34
2022-10-11T16:23:38.584Z,14.30
2022-10-11T16:26:08.304Z,14.32
2022-10-11T16:28:38.057Z,14.35
2022-10-11T16:31:07.719Z,14.35
2022-10-11T16:33:35.860Z,14.35
2022-10-11T16:36:26.073Z,14.34
2022-10-11T16:38:53.902Z,14.33
2022-10-11T16:41:22.030Z,14.30
2022-10-11T16:43:53.485Z,14.28
2022-10-11T16:46:21.769Z,14.26
2022-10-11T16:48:49.836Z,14.25
2022-10-11T16:51:17.729Z,14.25
2022-10-11T16:53:45.780Z,14.25
2022-10-11T16:56:13.793Z,14.23
2022-10-11T16:58:41.944Z,14.19
2022-10-11T17:01:10.876Z,14.14
2022-10-11T17:03:39.322Z,14.06
2022-10-11T17:06:07.703Z,14.03
2022-10-11T17:08:36.516Z,14.01
2022-10-11T17:11:04.545Z,13.98
2022-10-11T17:13:32.391Z,13.92
2022-10-11T17:16:00.301Z,13.86
2022-10-11T17:18:28.864Z,13.80
2022-10-11T17:21:02.958Z,13.76
2022-10-11T17:23:30.891Z,13.76
2022-10-11T17:26:01.481Z,13.75
2022-10-11T17:28:31.252Z,13.78
2022-10-11T17:30:59.721Z,13.81
2022-10-11T17:33:28.362Z,13.83
2022-10-11T17:35:57.624Z,13.82
2022-10-11T17:38:29.020Z,13.76
2022-10-11T17:41:01.696Z,13.70
2022-10-11T17:43:31.146Z,13.67
2022-10-11T17:46:00.613Z,13.60
2022-10-11T17:48:28.990Z,13.56
2022-10-11T17:50:56.800Z,13.52
2022-10-11T17:53:24.829Z,13.55
2022-10-11T17:55:54.436Z,13.57
2022-10-11T17:58:22.518Z,13.62
2022-10-11T18:00:51.163Z,13.65
2022-10-11T18:03:19.114Z,13.68
2022-10-11T18:05:47.141Z,13.65
2022-10-11T18:08:15.317Z,13.65
2022-10-11T18:10:46.765Z,13.64
2022-10-11T18:13:15.661Z,13.65
2022-10-11T18:15:43.668Z,13.65
2022-10-11T18:18:11.935Z,13.61
2022-10-11T18:20:44.292Z,13.54
2022-10-11T18:23:12.386Z,13.47
2022-10-11T18:25:40.242Z,13.41
2022-10-11T18:28:08.255Z,13.38
2022-10-11T18:30:36.481Z,13.42
2022-10-11T18:33:04.464Z,13.45
2022-10-11T18:35:32.622Z,13.49
2022-10-11T18:38:01.121Z,13.53
2022-10-11T18:40:29.247Z,13.57
2022-10-11T18:42:57.064Z,13.59
2022-10-11T18:45:25.016Z,13.57
2022-10-11T18:47:52.925Z,13.55
2022-10-11T18:50:20.752Z,13.56
2022-10-11T18:52:48.986Z,13.55
2022-10-11T18:55:17.106Z,13.54
2022-10-11T18:57:45.080Z,13.54
2022-10-11T19:00:37.782Z,13.50
2022-10-11T19:03:01.353Z,13.43
2022-10-11T19:05:29.264Z,13.37
2022-10-11T19:07:57.236Z,13.35
2022-10-11T19:10:25.446Z,13.33
2022-10-11T19:12:53.380Z,13.30
2022-10-11T19:15:24.160Z,13.29
2022-10-11T19:17:54.474Z,13.27
2022-10-11T19:20:22.622Z,13.23
2022-10-11T19:22:50.432Z,13.21
2022-10-11T19:25:18.358Z,13.21
2022-10-11T19:27:46.473Z,13.29
2022-10-11T19:30:14.510Z,13.35
2022-10-11T19:32:42.451Z,13.42
2022-10-11T19:35:10.361Z,13.47
2022-10-11T19:37:38.517Z,13.50
2022-10-11T19:40:07.205Z,13.45
2022-10-11T19:42:36.099Z,13.41
2022-10-11T19:45:04.189Z,13.42
2022-10-11T19:47:32.453Z,13.39
2022-10-11T19:50:01.034Z,13.39
2022-10-11T19:52:29.149Z,13.35
2022-10-11T19:54:57.180Z,13.31
2022-10-11T19:57:25.156Z,13.26
2022-10-11T19:59:53.244Z,13.24
2022-10-11T20:02:21.090Z,13.22
2022-10-11T20:04:53.325Z,13.17
2022-10-11T20:07:21.447Z,13.10
2022-10-11T20:09:49.298Z,13.07
2022-10-11T20:12:17.220Z,13.04
2022-10-11T20:14:45.250Z,13.03
2022-10-11T20:17:13.843Z,13.03
2022-10-11T20:19:41.812Z,13.08
2022-10-11T20:22:09.879Z,13.11
2022-10-11T20:24:37.848Z,13.10
2022-10-11T20:27:06.337Z,13.06
2022-10-11T20:29:34.652Z,13.01
2022-10-11T20:32:02.585Z,12.96
2022-10-11T20:34:30.763Z,12.91
2022-10-11T20:36:59.679Z,12.90
2022-10-11T20:39:27.729Z,12.87
2022-10-11T20:41:55.560Z,12.90
2022-10-11T20:44:23.872Z,12.92
2022-10-11T20:46:51.954Z,12.88
2022-10-11T20:49:20.205Z,12.84
2022-10-11T20:51:48.497Z,12.81
2022-10-11T20:54:16.637Z,12.75
2022-10-11T20:56:44.491Z,12.70
2022-10-11T20:59:12.514Z,12.64
2022-10-11T21:01:41.873Z,12.63
2022-10-11T21:04:14.497Z,12.70
2022-10-11T21:06:42.469Z,12.67
2022-10-11T21:09:12.612Z,12.62
2022-10-11T21:11:44.154Z,12.58
2022-10-11T21:14:12.092Z,12.56
2022-10-11T21:16:40.086Z,12.52
2022-10-11T21:19:12.268Z,12.48
2022-10-11T21:21:40.434Z,12.43
2022-10-11T21:24:08.504Z,12.39
2022-10-11T21:26:36.477Z,12.34
2022-10-11T21:29:04.383Z,12.33
2022-10-11T21:31:34.357Z,12.33
2022-10-11T21:34:05.353Z,12.28
2022-10-11T21:36:33.486Z,12.21
2022-10-11T21:39:01.563Z,12.19
2022-10-11T21:41:34.173Z,12.14
2022-10-11T21:44:02.224Z,12.08
2022-10-11T21:49:19.957Z,12.15
2022-10-11T21:51:48.591Z,12.24
2022-10-11T21:54:16.827Z,12.20
2022-10-11T21:56:44.793Z,12.13
2022-10-11T21:59:12.934Z,12.10
2022-10-11T22:01:41.315Z,12.11
2022-10-11T22:04:10.550Z,12.20
2022-10-11T22:06:39.492Z,12.23
2022-10-11T22:09:08.328Z,12.25
2022-10-11T22:11:36.749Z,12.27
2022-10-11T22:14:04.893Z,12.28
2022-10-11T22:16:34.149Z,12.29
2022-10-11T22:19:02.098Z,12.29
2022-10-11T22:21:30.952Z,12.27
2022-10-11T22:23:58.963Z,12.24
2022-10-11T22:26:30.848Z,12.20
2022-10-11T22:29:00.364Z,12.13
2022-10-11T22:31:28.839Z,12.04
2022-10-11T22:33:57.979Z,11.94
2022-10-11T22:36:26.776Z,11.87
2022-10-11T22:38:54.956Z,11.79
2022-10-11T22:41:23.632Z,11.72
2022-10-11T22:43:52.070Z,11.71
2022-10-11T22:46:19.906Z,11.78
2022-10-11T22:48:48.031Z,11.84
2022-10-11T22:51:15.936Z,11.87
2022-10-11T22:53:43.996Z,11.82
2022-10-11T22:56:11.917Z,11.86
2022-10-11T22:58:39.834Z,11.94
2022-10-11T23:01:08.592Z,11.97
2022-10-11T23:03:36.481Z,11.97
2022-10-11T23:06:04.868Z,11.90
2022-10-11T23:08:32.995Z,11.78
2022-10-11T23:11:04.915Z,11.72
2022-10-11T23:13:33.174Z,11.74
2022-10-11T23:18:38.791Z,11.83
2022-10-11T23:21:07.355Z,11.87
2022-10-11T23:23:35.682Z,11.90
2022-10-11T23:26:08.511Z,11.84
2022-10-11T23:28:36.835Z,11.75
2022-10-11T23:31:08.708Z,11.67
2022-10-11T23:33:37.057Z,11.63
2022-10-11T23:36:05.721Z,11.69
2022-10-11T23:38:33.704Z,11.74
2022-10-11T23:41:01.651Z,11.79
2022-10-11T23:43:29.483Z,11.82
2022-10-11T23:45:57.508Z,11.80
2022-10-11T23:48:25.469Z,11.75
2022-10-11T23:50:53.448Z,11.70
2022-10-11T23:53:21.511Z,11.67
2022-10-11T23:55:49.534Z,11.64
2022-10-11T23:58:17.555Z,11.60
